Clifford Maersk — OYRO2 — position and weather

sailwx.info

Track history (hours):
 
Tides and Currents Weather Stations Pressure Air Temp Water Temp Dewpoint Dewpoint Depression Visibility Wind Speed Wind Dir Waves Ship Positions

Clifford Maersk

Last reported at 2014-Nov-24 22:33 UTC. Time now 2014-Nov-24 22:50 UTC.
Position N 34°40' E 135°15'.

Type: Ship (hazmat cat A). MMSI: 219840000.

Date/timePositionNaut miles runAvg speedWind from/ knotsBaromVisibWave heightAir tempDewpointWater temp
2014-Nov-24 22:33N 34°40' E 135°15'9 9.2
2014-Nov-24 21:33N 34°31' E 135°12'1212.3
2014-Nov-24 20:33N 34°22' E 135°02'1110.7
2014-Nov-24 19:33N 34°12' E 134°59'9 8.5
2014-Nov-24 18:33N 34°03' E 134°57'  
2014-Nov-22 00:33N 24°27' E 119°17'1814.5
2014-Nov-21 23:18N 24°17' E 119°02'2614.2
2014-Nov-21 21:29N 24°01' E 118°39'1213.6
2014-Nov-21 20:33N 23°55' E 118°27'1312.7
2014-Nov-21 19:33N 23°47' E 118°16'1613.2
2014-Nov-21 18:23N 23°37' E 118°03'1313.0
2014-Nov-21 17:25N 23°30' E 117°52'1613.3
2014-Nov-21 16:12N 23°20' E 117°38'914.2
2014-Nov-21 15:33N 23°15' E 117°30'1715.3
2014-Nov-21 14:26N 23°05' E 117°15'1415.7
2014-Nov-21 13:33N 22°57' E 117°02'1615.4
2014-Nov-21 12:33N 22°48' E 116°49'1814.8
2014-Nov-21 11:21N 22°39' E 116°32'4413.6
2014-Nov-21 08:09N 22°24' E 115°48'8512.5
2014-Nov-21 01:24N 22°34' E 114°17'1 0.9
2014-Nov-21 00:25N 22°34' E 114°16'0 0.1
2014-Nov-20 23:33N 22°34' E 114°16'0 0.0
2014-Nov-20 22:33N 22°34' E 114°16'0 0.0
2014-Nov-20 21:33N 22°34' E 114°16'0 0.1
2014-Nov-20 20:33N 22°34' E 114°16'0 0.0
2014-Nov-20 19:33N 22°34' E 114°16'0 0.0
2014-Nov-20 18:33N 22°34' E 114°16'0 0.0
2014-Nov-20 17:22N 22°34' E 114°16'0 0.0
2014-Nov-20 16:14N 22°34' E 114°16'0 0.0
2014-Nov-20 13:33N 22°34' E 114°16'0 0.0
2014-Nov-20 06:18N 22°34' E 114°16'1 0.7
2014-Nov-20 05:32N 22°34' E 114°16'  
2014-Nov-15 19:26N 01°18' E 104°21'1213.5
2014-Nov-15 18:33N 01°15' E 104°09'1414.0
2014-Nov-15 17:33N 01°13' E 103°55'10 1.9
2014-Nov-15 12:08N 01°17' E 103°46'0 0.0
2014-Nov-15 11:20N 01°17' E 103°46'0 0.0
2014-Nov-15 10:29N 01°17' E 103°46'0 0.0
2014-Nov-15 09:26N 01°17' E 103°46'0 0.0
2014-Nov-15 08:17N 01°17' E 103°46'0 0.0
2014-Nov-15 07:05N 01°17' E 103°46'0 0.0
2014-Nov-15 06:32N 01°17' E 103°46'0 0.0
2014-Nov-15 05:32N 01°17' E 103°46'0 0.0
2014-Nov-15 04:17N 01°17' E 103°46'0 0.0
2014-Nov-15 03:29N 01°17' E 103°46'0 0.0
2014-Nov-15 02:32N 01°17' E 103°46'0 0.0
2014-Nov-15 01:32N 01°17' E 103°46'0 0.0
2014-Nov-15 00:32N 01°17' E 103°46'0 0.0
2014-Nov-14 23:32N 01°17' E 103°46'  
Track history (hours):
 
Tides and Currents Weather Stations Pressure Air Temp Water Temp Dewpoint Dewpoint Depression Visibility Wind Speed Wind Dir Waves Ship Positions

Clifford Maersk

Last reported at 2014-Nov-24 22:33 UTC. Time now 2014-Nov-24 22:50 UTC.
Position N 34°40' E 135°15'.

Type: Ship (hazmat cat A). MMSI: 219840000.

Date/timePositionNaut miles runAvg speedWind from/ knotsBaromVisibWave heightAir tempDewpointWater temp
2014-Nov-24 22:33N 34°40' E 135°15'9 9.2
2014-Nov-24 21:33N 34°31' E 135°12'1212.3
2014-Nov-24 20:33N 34°22' E 135°02'1110.7
2014-Nov-24 19:33N 34°12' E 134°59'9 8.5
2014-Nov-24 18:33N 34°03' E 134°57'  
2014-Nov-22 00:33N 24°27' E 119°17'1814.5
2014-Nov-21 23:18N 24°17' E 119°02'2614.2
2014-Nov-21 21:29N 24°01' E 118°39'1213.6
2014-Nov-21 20:33N 23°55' E 118°27'1312.7
2014-Nov-21 19:33N 23°47' E 118°16'1613.2
2014-Nov-21 18:23N 23°37' E 118°03'1313.0
2014-Nov-21 17:25N 23°30' E 117°52'1613.3
2014-Nov-21 16:12N 23°20' E 117°38'914.2
2014-Nov-21 15:33N 23°15' E 117°30'1715.3
2014-Nov-21 14:26N 23°05' E 117°15'1415.7
2014-Nov-21 13:33N 22°57' E 117°02'1615.4
2014-Nov-21 12:33N 22°48' E 116°49'1814.8
2014-Nov-21 11:21N 22°39' E 116°32'4413.6
2014-Nov-21 08:09N 22°24' E 115°48'8512.5
2014-Nov-21 01:24N 22°34' E 114°17'1 0.9
2014-Nov-21 00:25N 22°34' E 114°16'0 0.1
2014-Nov-20 23:33N 22°34' E 114°16'0 0.0
2014-Nov-20 22:33N 22°34' E 114°16'0 0.0
2014-Nov-20 21:33N 22°34' E 114°16'0 0.1
2014-Nov-20 20:33N 22°34' E 114°16'0 0.0
2014-Nov-20 19:33N 22°34' E 114°16'0 0.0
2014-Nov-20 18:33N 22°34' E 114°16'0 0.0
2014-Nov-20 17:22N 22°34' E 114°16'0 0.0
2014-Nov-20 16:14N 22°34' E 114°16'0 0.0
2014-Nov-20 13:33N 22°34' E 114°16'0 0.0
2014-Nov-20 06:18N 22°34' E 114°16'1 0.7
2014-Nov-20 05:32N 22°34' E 114°16'  
2014-Nov-15 19:26N 01°18' E 104°21'1213.5
2014-Nov-15 18:33N 01°15' E 104°09'1414.0
2014-Nov-15 17:33N 01°13' E 103°55'10 1.9
2014-Nov-15 12:08N 01°17' E 103°46'0 0.0
2014-Nov-15 11:20N 01°17' E 103°46'0 0.0
2014-Nov-15 10:29N 01°17' E 103°46'0 0.0
2014-Nov-15 09:26N 01°17' E 103°46'0 0.0
2014-Nov-15 08:17N 01°17' E 103°46'0 0.0
2014-Nov-15 07:05N 01°17' E 103°46'0 0.0
2014-Nov-15 06:32N 01°17' E 103°46'0 0.0
2014-Nov-15 05:32N 01°17' E 103°46'0 0.0
2014-Nov-15 04:17N 01°17' E 103°46'0 0.0
2014-Nov-15 03:29N 01°17' E 103°46'0 0.0
2014-Nov-15 02:32N 01°17' E 103°46'0 0.0
2014-Nov-15 01:32N 01°17' E 103°46'0 0.0
2014-Nov-15 00:32N 01°17' E 103°46'0 0.0
2014-Nov-14 23:32N 01°17' E 103°46'  

Dump ship's entire track history